sensor_id;sensor_type;location;lat;lon;timestamp;temperature;humidity
14521;DHT22;7347;50.844;4.490;2022-09-25T13:57:15;17.90;99.90
14521;DHT22;7347;50.844;4.490;2022-09-25T13:59:42;17.70;99.90
14521;DHT22;7347;50.844;4.490;2022-09-25T14:02:37;17.80;99.90
14521;DHT22;7347;50.844;4.490;2022-09-25T14:05:06;17.90;99.90
14521;DHT22;7347;50.844;4.490;2022-09-25T14:07:33;17.90;99.90
14521;DHT22;7347;50.844;4.490;2022-09-25T14:10:01;17.80;99.90
14521;DHT22;7347;50.844;4.490;2022-09-25T14:12:34;17.90;99.90
14521;DHT22;7347;50.844;4.490;2022-09-25T14:15:06;18.00;99.90
14521;DHT22;7347;50.844;4.490;2022-09-25T14:17:41;18.10;99.90
14521;DHT22;7347;50.844;4.490;2022-09-25T14:20:27;18.00;99.90
14521;DHT22;7347;50.844;4.490;2022-09-25T14:22:58;18.10;99.90
14521;DHT22;7347;50.844;4.490;2022-09-25T14:25:28;18.10;99.90
14521;DHT22;7347;50.844;4.490;2022-09-25T14:28:00;18.10;99.90
14521;DHT22;7347;50.844;4.490;2022-09-25T14:30:28;18.30;99.90
14521;DHT22;7347;50.844;4.490;2022-09-25T14:33:12;18.50;99.90
14521;DHT22;7347;50.844;4.490;2022-09-25T14:35:46;18.30;99.90
14521;DHT22;7347;50.844;4.490;2022-09-25T14:38:29;18.30;99.90
14521;DHT22;7347;50.844;4.490;2022-09-25T14:41:14;18.30;99.90
14521;DHT22;7347;50.844;4.490;2022-09-25T14:43:59;18.30;99.90
14521;DHT22;7347;50.844;4.490;2022-09-25T14:46:28;18.40;99.90
14521;DHT22;7347;50.844;4.490;2022-09-25T14:48:59;18.50;99.90
14521;DHT22;7347;50.844;4.490;2022-09-25T14:51:34;18.60;99.90
14521;DHT22;7347;50.844;4.490;2022-09-25T14:54:06;18.50;99.90
14521;DHT22;7347;50.844;4.490;2022-09-25T14:56:34;18.50;99.90
14521;DHT22;7347;50.844;4.490;2022-09-25T14:59:06;18.60;99.90
14521;DHT22;7347;50.844;4.490;2022-09-25T15:01:43;18.70;99.90
14521;DHT22;7347;50.844;4.490;2022-09-25T15:04:11;18.70;99.90
14521;DHT22;7347;50.844;4.490;2022-09-25T15:06:38;18.70;99.90
14521;DHT22;7347;50.844;4.490;2022-09-25T15:09:28;18.70;99.90
14521;DHT22;7347;50.844;4.490;2022-09-25T15:11:55;18.70;99.90
14521;DHT22;7347;50.844;4.490;2022-09-25T15:14:23;18.80;99.90
14521;DHT22;7347;50.844;4.490;2022-09-25T15:16:51;18.90;99.90
14521;DHT22;7347;50.844;4.490;2022-09-25T15:19:38;19.00;99.90
14521;DHT22;7347;50.844;4.490;2022-09-25T15:22:11;18.90;99.90
14521;DHT22;7347;50.844;4.490;2022-09-25T15:24:46;18.60;99.90
14521;DHT22;7347;50.844;4.490;2022-09-25T15:27:13;18.70;99.90
14521;DHT22;7347;50.844;4.490;2022-09-25T15:29:44;18.80;99.90
14521;DHT22;7347;50.844;4.490;2022-09-25T15:32:16;18.90;99.90
14521;DHT22;7347;50.844;4.490;2022-09-25T15:34:44;19.00;99.90
14521;DHT22;7347;50.844;4.490;2022-09-25T15:37:17;19.10;99.90
14521;DHT22;7347;50.844;4.490;2022-09-25T15:39:51;19.10;99.90
14521;DHT22;7347;50.844;4.490;2022-09-25T15:42:18;19.10;99.90
14521;DHT22;7347;50.844;4.490;2022-09-25T15:44:46;19.00;99.90
14521;DHT22;7347;50.844;4.490;2022-09-25T15:47:49;18.80;99.90
14521;DHT22;7347;50.844;4.490;2022-09-25T15:50:21;19.00;99.90
14521;DHT22;7347;50.844;4.490;2022-09-25T15:52:51;19.10;99.90
14521;DHT22;7347;50.844;4.490;2022-09-25T15:55:19;19.20;99.90
14521;DHT22;7347;50.844;4.490;2022-09-25T15:57:48;19.20;99.90
14521;DHT22;7347;50.844;4.490;2022-09-25T16:00:19;19.10;99.90
14521;DHT22;7347;50.844;4.490;2022-09-25T16:03:09;19.00;99.90
14521;DHT22;7347;50.844;4.490;2022-09-25T16:05:57;18.80;99.90
14521;DHT22;7347;50.844;4.490;2022-09-25T16:08:30;18.60;99.90
14521;DHT22;7347;50.844;4.490;2022-09-25T16:11:04;18.50;99.90
14521;DHT22;7347;50.844;4.490;2022-09-25T16:13:32;18.50;99.90
14521;DHT22;7347;50.844;4.490;2022-09-25T16:16:01;18.50;99.90
14521;DHT22;7347;50.844;4.490;2022-09-25T16:18:33;18.30;99.90
14521;DHT22;7347;50.844;4.490;2022-09-25T16:21:13;18.20;99.90
14521;DHT22;7347;50.844;4.490;2022-09-25T16:23:42;18.10;99.90
14521;DHT22;7347;50.844;4.490;2022-09-25T16:26:17;17.90;99.90
14521;DHT22;7347;50.844;4.490;2022-09-25T16:28:54;17.80;99.90
14521;DHT22;7347;50.844;4.490;2022-09-25T16:31:23;17.60;99.90
14521;DHT22;7347;50.844;4.490;2022-09-25T16:33:52;17.60;99.90
14521;DHT22;7347;50.844;4.490;2022-09-25T16:36:21;17.50;99.90
14521;DHT22;7347;50.844;4.490;2022-09-25T16:39:11;17.50;99.90
14521;DHT22;7347;50.844;4.490;2022-09-25T16:41:42;17.30;99.90
14521;DHT22;7347;50.844;4.490;2022-09-25T16:44:13;17.20;99.90
14521;DHT22;7347;50.844;4.490;2022-09-25T16:46:42;17.20;99.90
14521;DHT22;7347;50.844;4.490;2022-09-25T16:49:09;17.10;99.90
14521;DHT22;7347;50.844;4.490;2022-09-25T16:51:38;17.10;99.90
14521;DHT22;7347;50.844;4.490;2022-09-25T16:54:12;17.10;99.90
14521;DHT22;7347;50.844;4.490;2022-09-25T16:56:41;17.10;99.90
14521;DHT22;7347;50.844;4.490;2022-09-25T16:59:16;17.00;99.90
14521;DHT22;7347;50.844;4.490;2022-09-25T17:01:46;16.90;99.90
14521;DHT22;7347;50.844;4.490;2022-09-25T17:04:14;16.80;99.90
14521;DHT22;7347;50.844;4.490;2022-09-25T17:06:41;16.70;99.90
14521;DHT22;7347;50.844;4.490;2022-09-25T17:09:11;16.60;99.90
14521;DHT22;7347;50.844;4.490;2022-09-25T17:11:39;16.40;99.90
14521;DHT22;7347;50.844;4.490;2022-09-25T17:14:07;16.30;99.90
14521;DHT22;7347;50.844;4.490;2022-09-25T17:16:37;16.20;99.90
14521;DHT22;7347;50.844;4.490;2022-09-25T17:19:09;16.10;99.90
14521;DHT22;7347;50.844;4.490;2022-09-25T17:21:40;16.20;99.90
14521;DHT22;7347;50.844;4.490;2022-09-25T17:24:08;16.20;99.90
14521;DHT22;7347;50.844;4.490;2022-09-25T17:26:36;16.20;99.90
14521;DHT22;7347;50.844;4.490;2022-09-25T17:29:03;16.20;99.90
14521;DHT22;7347;50.844;4.490;2022-09-25T17:31:30;16.20;99.90
14521;DHT22;7347;50.844;4.490;2022-09-25T17:33:58;16.30;99.90
14521;DHT22;7347;50.844;4.490;2022-09-25T17:36:26;16.30;99.90
14521;DHT22;7347;50.844;4.490;2022-09-25T17:38:53;16.20;99.90
14521;DHT22;7347;50.844;4.490;2022-09-25T17:41:24;16.30;99.90
14521;DHT22;7347;50.844;4.490;2022-09-25T17:43:54;16.20;99.90
14521;DHT22;7347;50.844;4.490;2022-09-25T17:46:21;16.20;99.90
14521;DHT22;7347;50.844;4.490;2022-09-25T17:48:48;16.20;99.90
14521;DHT22;7347;50.844;4.490;2022-09-25T17:51:16;16.30;99.90
14521;DHT22;7347;50.844;4.490;2022-09-25T17:53:44;16.30;99.90
14521;DHT22;7347;50.844;4.490;2022-09-25T17:56:14;16.30;99.90
14521;DHT22;7347;50.844;4.490;2022-09-25T17:58:41;16.30;99.90
14521;DHT22;7347;50.844;4.490;2022-09-25T18:01:12;16.20;99.90
14521;DHT22;7347;50.844;4.490;2022-09-25T18:03:39;16.20;99.90
14521;DHT22;7347;50.844;4.490;2022-09-25T18:06:06;16.10;99.90
14521;DHT22;7347;50.844;4.490;2022-09-25T18:08:33;16.00;99.90
14521;DHT22;7347;50.844;4.490;2022-09-25T18:11:02;15.90;99.90
14521;DHT22;7347;50.844;4.490;2022-09-25T18:13:29;15.90;99.90
14521;DHT22;7347;50.844;4.490;2022-09-25T18:15:57;15.80;99.90
14521;DHT22;7347;50.844;4.490;2022-09-25T18:18:25;15.80;99.90
14521;DHT22;7347;50.844;4.490;2022-09-25T18:21:13;15.70;99.90
14521;DHT22;7347;50.844;4.490;2022-09-25T18:23:57;15.70;99.90
14521;DHT22;7347;50.844;4.490;2022-09-25T18:26:27;15.60;99.90
14521;DHT22;7347;50.844;4.490;2022-09-25T18:28:54;15.50;99.90
14521;DHT22;7347;50.844;4.490;2022-09-25T18:31:22;15.50;99.90
14521;DHT22;7347;50.844;4.490;2022-09-25T18:33:49;15.40;99.90
14521;DHT22;7347;50.844;4.490;2022-09-25T18:36:19;15.30;99.90
14521;DHT22;7347;50.844;4.490;2022-09-25T18:38:46;15.20;99.90
14521;DHT22;7347;50.844;4.490;2022-09-25T18:41:13;15.10;99.90
14521;DHT22;7347;50.844;4.490;2022-09-25T18:43:41;15.00;99.90
14521;DHT22;7347;50.844;4.490;2022-09-25T18:46:08;14.80;99.90
14521;DHT22;7347;50.844;4.490;2022-09-25T18:48:35;14.90;99.90
14521;DHT22;7347;50.844;4.490;2022-09-25T18:51:02;14.80;99.90
14521;DHT22;7347;50.844;4.490;2022-09-25T18:53:29;14.80;99.90
14521;DHT22;7347;50.844;4.490;2022-09-25T18:55:57;14.80;99.90
14521;DHT22;7347;50.844;4.490;2022-09-25T18:58:24;14.70;99.90
14521;DHT22;7347;50.844;4.490;2022-09-25T19:00:55;14.70;99.90
14521;DHT22;7347;50.844;4.490;2022-09-25T19:03:22;14.60;99.90
14521;DHT22;7347;50.844;4.490;2022-09-25T19:05:55;14.50;99.90
14521;DHT22;7347;50.844;4.490;2022-09-25T19:08:22;14.40;99.90
14521;DHT22;7347;50.844;4.490;2022-09-25T19:10:49;14.40;99.90
14521;DHT22;7347;50.844;4.490;2022-09-25T19:13:16;14.30;99.90
14521;DHT22;7347;50.844;4.490;2022-09-25T19:15:43;14.30;99.90
14521;DHT22;7347;50.844;4.490;2022-09-25T19:18:11;14.30;99.90
14521;DHT22;7347;50.844;4.490;2022-09-25T19:20:45;14.20;99.90
14521;DHT22;7347;50.844;4.490;2022-09-25T19:23:12;14.10;99.90
14521;DHT22;7347;50.844;4.490;2022-09-25T19:25:39;14.00;99.90
14521;DHT22;7347;50.844;4.490;2022-09-25T19:28:16;13.90;99.90
14521;DHT22;7347;50.844;4.490;2022-09-25T19:30:43;13.90;99.90
14521;DHT22;7347;50.844;4.490;2022-09-25T19:33:11;13.80;99.90
14521;DHT22;7347;50.844;4.490;2022-09-25T19:35:38;13.80;99.90
14521;DHT22;7347;50.844;4.490;2022-09-25T19:38:05;13.70;99.90
14521;DHT22;7347;50.844;4.490;2022-09-25T19:40:32;13.70;99.90
14521;DHT22;7347;50.844;4.490;2022-09-25T19:43:01;13.70;99.90
14521;DHT22;7347;50.844;4.490;2022-09-25T19:45:28;13.60;99.90
14521;DHT22;7347;50.844;4.490;2022-09-25T19:47:55;13.60;99.90
14521;DHT22;7347;50.844;4.490;2022-09-25T19:50:23;13.50;99.90
14521;DHT22;7347;50.844;4.490;2022-09-25T19:52:50;13.40;99.90
14521;DHT22;7347;50.844;4.490;2022-09-25T19:55:16;13.30;99.90
14521;DHT22;7347;50.844;4.490;2022-09-25T19:57:44;13.20;99.90
14521;DHT22;7347;50.844;4.490;2022-09-25T20:00:11;13.20;99.90
14521;DHT22;7347;50.844;4.490;2022-09-25T20:02:44;13.10;99.90
14521;DHT22;7347;50.844;4.490;2022-09-25T20:05:11;13.00;99.90
14521;DHT22;7347;50.844;4.490;2022-09-25T20:07:39;12.90;99.90
14521;DHT22;7347;50.844;4.490;2022-09-25T20:10:06;12.90;99.90
14521;DHT22;7347;50.844;4.490;2022-09-25T20:12:33;12.80;99.90
14521;DHT22;7347;50.844;4.490;2022-09-25T20:15:00;12.80;99.90
14521;DHT22;7347;50.844;4.490;2022-09-25T20:17:26;12.80;99.90
14521;DHT22;7347;50.844;4.490;2022-09-25T20:19:53;12.80;99.90
14521;DHT22;7347;50.844;4.490;2022-09-25T20:22:20;12.80;99.90
14521;DHT22;7347;50.844;4.490;2022-09-25T20:24:48;12.90;99.90
14521;DHT22;7347;50.844;4.490;2022-09-25T20:27:16;12.80;99.90
14521;DHT22;7347;50.844;4.490;2022-09-25T20:29:43;12.80;99.90
14521;DHT22;7347;50.844;4.490;2022-09-25T20:32:10;12.70;99.90
14521;DHT22;7347;50.844;4.490;2022-09-25T20:34:36;12.60;99.90
14521;DHT22;7347;50.844;4.490;2022-09-25T20:37:03;12.60;99.90
14521;DHT22;7347;50.844;4.490;2022-09-25T20:39:30;12.50;99.90
14521;DHT22;7347;50.844;4.490;2022-09-25T20:41:58;12.50;99.90
14521;DHT22;7347;50.844;4.490;2022-09-25T20:44:25;12.50;99.90
14521;DHT22;7347;50.844;4.490;2022-09-25T20:46:52;12.50;99.90
14521;DHT22;7347;50.844;4.490;2022-09-25T20:49:18;12.50;99.90
14521;DHT22;7347;50.844;4.490;2022-09-25T20:51:45;12.40;99.90
14521;DHT22;7347;50.844;4.490;2022-09-25T20:54:12;12.30;99.90
14521;DHT22;7347;50.844;4.490;2022-09-25T20:56:39;12.30;99.90
14521;DHT22;7347;50.844;4.490;2022-09-25T20:59:10;12.40;99.90
14521;DHT22;7347;50.844;4.490;2022-09-25T21:01:37;12.40;99.90
14521;DHT22;7347;50.844;4.490;2022-09-25T21:04:06;12.40;99.90
14521;DHT22;7347;50.844;4.490;2022-09-25T21:06:36;12.20;99.90
14521;DHT22;7347;50.844;4.490;2022-09-25T21:09:05;12.20;99.90
14521;DHT22;7347;50.844;4.490;2022-09-25T21:11:33;12.10;99.90
14521;DHT22;7347;50.844;4.490;2022-09-25T21:14:01;12.10;99.90
14521;DHT22;7347;50.844;4.490;2022-09-25T21:16:31;12.10;99.90
14521;DHT22;7347;50.844;4.490;2022-09-25T21:19:00;12.10;99.90
14521;DHT22;7347;50.844;4.490;2022-09-25T21:21:28;12.10;99.90
14521;DHT22;7347;50.844;4.490;2022-09-25T21:23:56;12.00;99.90
14521;DHT22;7347;50.844;4.490;2022-09-25T21:26:25;12.00;99.90
14521;DHT22;7347;50.844;4.490;2022-09-25T21:28:53;12.00;99.90
14521;DHT22;7347;50.844;4.490;2022-09-25T21:31:22;11.90;99.90
14521;DHT22;7347;50.844;4.490;2022-09-25T21:33:51;11.90;99.90
14521;DHT22;7347;50.844;4.490;2022-09-25T21:36:18;12.00;99.90
14521;DHT22;7347;50.844;4.490;2022-09-25T21:38:46;11.90;99.90
14521;DHT22;7347;50.844;4.490;2022-09-25T21:41:15;11.90;99.90
14521;DHT22;7347;50.844;4.490;2022-09-25T21:43:43;11.90;99.90
14521;DHT22;7347;50.844;4.490;2022-09-25T21:46:11;11.90;99.90
14521;DHT22;7347;50.844;4.490;2022-09-25T21:48:40;11.90;99.90
14521;DHT22;7347;50.844;4.490;2022-09-25T21:51:11;11.80;99.90
14521;DHT22;7347;50.844;4.490;2022-09-25T21:53:39;11.70;99.90
14521;DHT22;7347;50.844;4.490;2022-09-25T21:56:07;11.70;99.90
14521;DHT22;7347;50.844;4.490;2022-09-25T21:58:37;11.70;99.90
14521;DHT22;7347;50.844;4.490;2022-09-25T22:01:06;11.70;99.90
14521;DHT22;7347;50.844;4.490;2022-09-25T22:03:34;11.70;99.90
